AirNav   Air Wisconsin Up To $57,000 Bonus
 
 445 users online  

4CL3 Antelope Valley Ranch Airport
Williams, California, USA

GOING TO WILLIAMS?


FAA INFORMATION EFFECTIVE 03 NOVEMBER 2022

Location

FAA Identifier: 4CL3
Lat/Long: 39-08-46.5000N 122-21-14.8200W
39-08.775000N 122-21.247000W
39.1462500,-122.3541167
(estimated)
Elevation: 530 ft. / 162 m (estimated)
Variation: 16E (1995)
From city: 10 miles W of WILLIAMS, CA
Time zone: UTC -8 (UTC -7 during Daylight Saving Time)
Zip code: 95987

Airport Operations

Airport use: Private use. Permission required prior to landing
Activation date: 09/1999
Control tower: no
ARTCC: OAKLAND CENTER
FSS: RANCHO MURIETA FLIGHT SERVICE STATION
Attendance: UNATNDD
Wind indicator: yes
Segmented circle: no

Nearby radio navigation aids

VOR radial/distance  VOR name  Freq  Var
ILAr268/15.9WILLIAMS VORTAC114.4018E
MYVr258/36.5MARYSVILLE VOR/DME110.8016E

Airport Services

Runway Information

Runway 15/33

Dimensions: 3000 x 60 ft. / 914 x 18 m
Surface: turf
RUNWAY 15  RUNWAY 33
Traffic pattern: leftleft
Obstructions: none50 ft. tree, 200 ft. from runway

Airport Ownership and Management from official FAA records

Ownership: Privately-owned
Owner: GREGORY HEMMI & RHONDA GRUBER
3996 LEESVILLE ROAD, PO BOX 1359
WILLIAMS, CA 95987
Phone 530-473-5142
Manager: GREGORY HEMMI & RHONDA GRUBER
3996 LEESVILLE ROAD, PO BOX 1359
WILLIAMS, CA 95987
Phone 530-473-5142

Additional Remarks

FOR CD CTC OAKLAND ARTCC AT 510-745-3380.

Instrument Procedures

There are no published instrument procedures at 4CL3.

Some nearby airports with instrument procedures:

O08 - Colusa County Airport (17 nm E)
KWLW - Willows/Glenn County Airport (23 nm N)
1O2 - Lampson Field Airport (27 nm W)
O37 - Haigh Field Airport (36 nm N)
O41 - Watts-Woodland Airport (36 nm SE)
 
Loc | Ops | Rwys | IFR | FBO | Links
Com | Nav | Svcs | Stats | Notes

Sonoma Jet Center
 
Area around 4CL3 (Antelope Valley Ranch Airport)
 
Road maps at: MapQuest Bing Google
 
Aerial photo
WARNING: Photo may not be current or correct
Aerial photo of 4CL3 (Antelope Valley Ranch Airport)
Photo taken 14-May-2010
looking west.

Do you have a better or more recent aerial photo of Antelope Valley Ranch Airport that you would like to share? If so, please send us your photo.

 
Sectional chart

 
Airport distance calculator
Flying to Antelope Valley Ranch Airport? Find the distance to fly.

From to 4CL3

Sunrise and sunset
Times for 28-Nov-2022
 Local
(UTC-8)
 Zulu
(UTC)
Morning civil twilight06:3814:38
Sunrise07:0815:08
Sunset16:4700:47
Evening civil twilight17:1601:16

Current date and time
Zulu (UTC)  28-Nov-2022 11:00:10
Local (UTC-8)  28-Nov-2022 03:00:10
 
METAR
KUKI 
39nm W 
280956Z AUTO 00000KT 9SM CLR 04/02 A3005 RMK AO2 SLP172 T00390017
KOVE 
40nm NE 
281053Z AUTO 00000KT 10SM CLR 07/03 A2997 RMK AO2 SLP152 T00720028
KDWA 
41nm SE 
281035Z AUTO 35006KT 10SM CLR 04/01 A2998 RMK AO2
KBAB 
43nm E 
280555Z AUTO 10005KT 10SM CLR 08/03 A2998 RMK AO2 SLP155 T00840028 10162 20065 $
KSMF 
44nm SE 
280953Z 33005KT 10SM CLR 05/01 A2997 RMK AO2 SLP144 T00500011 $
KSTS 
44nm SW 
707-573-8393
281053Z AUTO 33014KT 10SM CLR 11/05 A2999 RMK AO2 SLP149 T01110050
KCIC 
45nm NE 
281055Z AUTO 04003KT 10SM CLR 05/02 A2996 RMK AO1
KLHM 
49nm E 
281035Z AUTO 06004KT 10SM CLR 02/01 A2996 RMK AO1
KVCB 
50nm SE 
281053Z AUTO 00000KT 10SM CLR 03/01 A2997 RMK AO2 SLP149 T00280006
TAF
KUKI 
39nm W 
280524Z 2806/2906 34005KT P6SM SCT250 FM281200 33005KT P6SM BKN040 FM282000 30011KT P6SM VCSH BKN025 OVC050 FM290300 31005KT P6SM SCT025
KSMF 
44nm SE 
280521Z 2806/2906 VRB05KT P6SM SCT200 FM281000 VRB03KT 6SM BR SCT150 FM281800 20006KT P6SM SCT120 FM282300 28009KT P6SM BKN100
KSTS 
44nm SW 
280520Z 2806/2906 35003KT P6SM SCT250 WS010/33030KT FM281200 33004KT 6SM BR BKN250 WS020/33030KT FM281800 32015G22KT P6SM BKN250 FM282200 32015G22KT P6SM BKN050 FM290200 30008KT P6SM SKC
NOTAMs
Click for the latest NOTAMs
NOTAMs are issued by the DoD/FAA and will open in a separate window not controlled by AirNav.

 

 
 

Would you like to see your business listed on this page?

 If your business provides an interesting product or service to pilots, flight crews, aircraft, or users of the Antelope Valley Ranch Airport, you should consider listing it here.  To start the listing process, click on the button below
 
Add a business
 

Other Pages about Antelope Valley Ranch Airport

Update a link
 
Copyright © AirNav, LLC. All rights reserved. Privacy Policy  Contact